TimeMDT,TemperatureF,Dew PointF,Humidity,Sea Level PressureIn,VisibilityMPH,Wind Direction,Wind SpeedMPH,Gust SpeedMPH,PrecipitationIn,Events,Conditions,WindDirDegrees,DateUTC
12:53 AM,73.0,46.9,39,29.88,10.0,ESE,5.8,-,N/A,,Partly Cloudy,120,2013-08-19 06:53:00
1:53 AM,66.0,45.0,47,29.89,10.0,SSW,5.8,-,N/A,,Clear,200,2013-08-19 07:53:00
2:53 AM,64.0,44.1,48,29.89,10.0,South,5.8,-,N/A,,Clear,190,2013-08-19 08:53:00
3:53 AM,61.0,43.0,52,29.90,10.0,SSE,5.8,-,N/A,,Clear,160,2013-08-19 09:53:00
4:53 AM,60.1,42.1,51,29.90,10.0,Calm,Calm,-,N/A,,Clear,0,2013-08-19 10:53:00
5:53 AM,60.1,41.0,49,29.91,10.0,South,5.8,-,N/A,,Clear,170,2013-08-19 11:53:00
6:53 AM,64.9,39.9,40,29.91,10.0,South,9.2,-,N/A,,Clear,170,2013-08-19 12:53:00
7:53 AM,62.1,44.1,52,29.94,10.0,SSW,5.8,-,N/A,,Clear,200,2013-08-19 13:53:00
8:53 AM,71.1,39.9,32,29.94,10.0,ESE,3.5,-,N/A,,Clear,110,2013-08-19 14:53:00
9:53 AM,73.9,46.0,37,29.94,10.0,NW,6.9,-,N/A,,Clear,320,2013-08-19 15:53:00
10:53 AM,80.1,45.0,29,29.91,10.0,North,4.6,-,N/A,,Clear,360,2013-08-19 16:53:00
11:53 AM,84.0,46.0,26,29.89,10.0,North,6.9,-,N/A,,Clear,10,2013-08-19 17:53:00
12:53 PM,88.0,46.9,24,29.87,10.0,Variable,3.5,-,N/A,,Clear,0,2013-08-19 18:53:00
1:53 PM,89.1,43.0,20,29.86,10.0,Variable,3.5,-,N/A,,Clear,0,2013-08-19 19:53:00
2:53 PM,93.0,39.9,16,29.83,9.0,WNW,4.6,-,N/A,,Clear,290,2013-08-19 20:53:00
3:53 PM,95.0,39.0,14,29.81,9.0,Variable,3.5,-,N/A,,Clear,0,2013-08-19 21:53:00
4:53 PM,96.1,30.0,10,29.78,10.0,North,6.9,-,N/A,,Clear,360,2013-08-19 22:53:00
5:53 PM,93.9,33.1,12,29.77,10.0,North,5.8,-,N/A,,Clear,360,2013-08-19 23:53:00
6:53 PM,91.0,37.9,15,29.76,9.0,NNE,3.5,-,N/A,,Clear,30,2013-08-20 00:53:00
7:53 PM,82.0,42.1,24,29.79,10.0,NNE,4.6,-,N/A,,Clear,30,2013-08-20 01:53:00
8:53 PM,75.9,37.9,25,29.79,10.0,NNE,4.6,-,N/A,,Clear,30,2013-08-20 02:53:00
9:53 PM,72.0,33.1,24,29.81,10.0,Calm,Calm,-,N/A,,Clear,0,2013-08-20 03:53:00
10:53 PM,71.1,33.1,25,29.80,10.0,SSW,8.1,-,N/A,,Clear,200,2013-08-20 04:53:00
11:53 PM,68.0,34.0,28,29.81,10.0,North,-9999.0,-,N/A,,Clear,0,2013-08-20 05:53:00